Terminal Aerodrome Forecast
Issued by NWS Cleveland, OH

Home | Current Version | Previous Version | Text Only | Print | Product List | Glossary On
Versions: 1 2 3 4 5 6 7 8 9 10 11 12 13 14 15 16 17 18 19 20 21 22 23
195
FTUS41 KCLE 261738
TAFCAK
TAF
KCAK 261738Z 2618/2718 30010KT P6SM SCT008 OVC015
      TEMPO 2618/2620 BKN008
     FM262200 VRB04KT P6SM SCT025 BKN035
     FM270700 13006KT 6SM -SHRA VCTS BKN025CB OVC035
     FM271300 05006KT 3SM BR OVC006
     FM271700 01006KT P6SM BKN015=

USA.gov is the U.S. government's official web portal to all federal, state and local government web resources and services.